sensor_id;sensor_type;location;lat;lon;timestamp;P1;durP1;ratioP1;P2;durP2;ratioP2
12286;SDS011;6206;53.100;11.098;2022-09-12T00:01:14;2.13;;;1.70;;
12286;SDS011;6206;53.100;11.098;2022-09-12T00:03:43;2.58;;;1.80;;
12286;SDS011;6206;53.100;11.098;2022-09-12T00:06:11;2.50;;;1.80;;
12286;SDS011;6206;53.100;11.098;2022-09-12T00:08:42;3.00;;;1.70;;
12286;SDS011;6206;53.100;11.098;2022-09-12T00:11:10;2.13;;;1.70;;
12286;SDS011;6206;53.100;11.098;2022-09-12T00:13:38;3.75;;;2.20;;
12286;SDS011;6206;53.100;11.098;2022-09-12T00:16:06;4.85;;;1.80;;
12286;SDS011;6206;53.100;11.098;2022-09-12T00:18:38;2.95;;;1.80;;
12286;SDS011;6206;53.100;11.098;2022-09-12T00:21:05;2.07;;;1.50;;
12286;SDS011;6206;53.100;11.098;2022-09-12T00:23:32;2.45;;;1.75;;
12286;SDS011;6206;53.100;11.098;2022-09-12T00:26:02;2.20;;;1.80;;
12286;SDS011;6206;53.100;11.098;2022-09-12T00:28:31;2.10;;;1.90;;
12286;SDS011;6206;53.100;11.098;2022-09-12T00:30:58;3.80;;;1.97;;
12286;SDS011;6206;53.100;11.098;2022-09-12T00:33:28;2.80;;;1.90;;
12286;SDS011;6206;53.100;11.098;2022-09-12T00:35:55;1.98;;;1.50;;
12286;SDS011;6206;53.100;11.098;2022-09-12T00:38:21;2.28;;;1.77;;
12286;SDS011;6206;53.100;11.098;2022-09-12T00:40:48;2.60;;;1.75;;
12286;SDS011;6206;53.100;11.098;2022-09-12T00:46:03;4.53;;;1.90;;
12286;SDS011;6206;53.100;11.098;2022-09-12T00:48:38;4.47;;;2.17;;
12286;SDS011;6206;53.100;11.098;2022-09-12T00:51:07;4.15;;;1.77;;
12286;SDS011;6206;53.100;11.098;2022-09-12T00:53:35;2.55;;;1.70;;
12286;SDS011;6206;53.100;11.098;2022-09-12T00:56:03;3.70;;;1.77;;
12286;SDS011;6206;53.100;11.098;2022-09-12T00:58:30;2.28;;;2.08;;
12286;SDS011;6206;53.100;11.098;2022-09-12T01:01:05;3.17;;;1.92;;
12286;SDS011;6206;53.100;11.098;2022-09-12T01:03:31;2.58;;;1.80;;
12286;SDS011;6206;53.100;11.098;2022-09-12T01:06:00;3.05;;;1.80;;
12286;SDS011;6206;53.100;11.098;2022-09-12T01:08:30;3.40;;;2.25;;
12286;SDS011;6206;53.100;11.098;2022-09-12T01:10:59;1.67;;;1.58;;
12286;SDS011;6206;53.100;11.098;2022-09-12T01:13:26;4.13;;;1.60;;
12286;SDS011;6206;53.100;11.098;2022-09-12T01:15:55;4.80;;;1.65;;
12286;SDS011;6206;53.100;11.098;2022-09-12T01:18:23;2.80;;;1.50;;
12286;SDS011;6206;53.100;11.098;2022-09-12T01:20:59;1.55;;;1.45;;
12286;SDS011;6206;53.100;11.098;2022-09-12T01:23:48;3.17;;;1.63;;
12286;SDS011;6206;53.100;11.098;2022-09-12T01:26:40;2.30;;;1.50;;
12286;SDS011;6206;53.100;11.098;2022-09-12T01:29:34;1.90;;;1.60;;
12286;SDS011;6206;53.100;11.098;2022-09-12T01:32:40;3.40;;;1.60;;
12286;SDS011;6206;53.100;11.098;2022-09-12T01:35:17;1.73;;;1.50;;
12286;SDS011;6206;53.100;11.098;2022-09-12T01:37:52;3.37;;;1.87;;
12286;SDS011;6206;53.100;11.098;2022-09-12T01:40:27;1.70;;;1.60;;
12286;SDS011;6206;53.100;11.098;2022-09-12T01:43:01;1.40;;;1.30;;
12286;SDS011;6206;53.100;11.098;2022-09-12T01:45:36;1.83;;;1.40;;
12286;SDS011;6206;53.100;11.098;2022-09-12T01:48:10;1.80;;;1.45;;
12286;SDS011;6206;53.100;11.098;2022-09-12T01:50:42;1.98;;;1.60;;
12286;SDS011;6206;53.100;11.098;2022-09-12T01:53:12;2.05;;;1.40;;
12286;SDS011;6206;53.100;11.098;2022-09-12T01:55:45;1.92;;;1.30;;
12286;SDS011;6206;53.100;11.098;2022-09-12T01:58:16;1.77;;;1.20;;
12286;SDS011;6206;53.100;11.098;2022-09-12T02:00:47;3.53;;;1.17;;
12286;SDS011;6206;53.100;11.098;2022-09-12T02:03:19;1.67;;;1.20;;
12286;SDS011;6206;53.100;11.098;2022-09-12T02:05:51;1.25;;;1.10;;
12286;SDS011;6206;53.100;11.098;2022-09-12T02:08:22;1.80;;;1.30;;
12286;SDS011;6206;53.100;11.098;2022-09-12T02:10:55;1.20;;;1.10;;
12286;SDS011;6206;53.100;11.098;2022-09-12T02:13:24;2.28;;;1.30;;
12286;SDS011;6206;53.100;11.098;2022-09-12T02:15:57;1.40;;;1.10;;
12286;SDS011;6206;53.100;11.098;2022-09-12T02:18:32;1.10;;;1.00;;
12286;SDS011;6206;53.100;11.098;2022-09-12T02:21:02;1.10;;;1.00;;
12286;SDS011;6206;53.100;11.098;2022-09-12T02:23:31;1.10;;;1.00;;
12286;SDS011;6206;53.100;11.098;2022-09-12T02:26:02;1.20;;;1.10;;
12286;SDS011;6206;53.100;11.098;2022-09-12T02:28:34;1.20;;;0.90;;
12286;SDS011;6206;53.100;11.098;2022-09-12T02:31:06;2.20;;;1.00;;
12286;SDS011;6206;53.100;11.098;2022-09-12T02:33:41;1.50;;;0.73;;
12286;SDS011;6206;53.100;11.098;2022-09-12T02:36:14;2.78;;;0.90;;
12286;SDS011;6206;53.100;11.098;2022-09-12T02:38:52;1.00;;;0.90;;
12286;SDS011;6206;53.100;11.098;2022-09-12T02:41:20;0.95;;;0.82;;
12286;SDS011;6206;53.100;11.098;2022-09-12T02:43:48;1.17;;;0.98;;
12286;SDS011;6206;53.100;11.098;2022-09-12T02:46:17;0.90;;;0.90;;
12286;SDS011;6206;53.100;11.098;2022-09-12T02:48:48;2.33;;;1.00;;
12286;SDS011;6206;53.100;11.098;2022-09-12T02:51:15;2.58;;;1.00;;
12286;SDS011;6206;53.100;11.098;2022-09-12T02:53:42;2.55;;;1.08;;
12286;SDS011;6206;53.100;11.098;2022-09-12T02:56:10;1.17;;;1.07;;
12286;SDS011;6206;53.100;11.098;2022-09-12T02:58:43;1.20;;;1.10;;
12286;SDS011;6206;53.100;11.098;2022-09-12T03:01:11;1.77;;;1.20;;
12286;SDS011;6206;53.100;11.098;2022-09-12T03:04:01;3.00;;;1.13;;
12286;SDS011;6206;53.100;11.098;2022-09-12T03:06:39;2.20;;;1.10;;
12286;SDS011;6206;53.100;11.098;2022-09-12T03:09:14;1.48;;;1.13;;
12286;SDS011;6206;53.100;11.098;2022-09-12T03:11:49;2.30;;;1.10;;
12286;SDS011;6206;53.100;11.098;2022-09-12T03:14:34;1.20;;;1.10;;
12286;SDS011;6206;53.100;11.098;2022-09-12T03:17:08;2.70;;;1.30;;
12286;SDS011;6206;53.100;11.098;2022-09-12T03:19:48;1.67;;;1.40;;
12286;SDS011;6206;53.100;11.098;2022-09-12T03:22:22;2.00;;;1.40;;
12286;SDS011;6206;53.100;11.098;2022-09-12T03:24:57;2.30;;;1.30;;
12286;SDS011;6206;53.100;11.098;2022-09-12T03:27:30;3.90;;;1.17;;
12286;SDS011;6206;53.100;11.098;2022-09-12T03:30:01;1.47;;;1.30;;
12286;SDS011;6206;53.100;11.098;2022-09-12T03:32:39;2.10;;;1.20;;
12286;SDS011;6206;53.100;11.098;2022-09-12T03:35:08;2.00;;;1.30;;
12286;SDS011;6206;53.100;11.098;2022-09-12T03:37:36;2.70;;;1.30;;
12286;SDS011;6206;53.100;11.098;2022-09-12T03:40:03;1.60;;;1.27;;
12286;SDS011;6206;53.100;11.098;2022-09-12T03:42:31;1.37;;;1.23;;
12286;SDS011;6206;53.100;11.098;2022-09-12T03:44:58;2.88;;;1.48;;
12286;SDS011;6206;53.100;11.098;2022-09-12T03:47:25;1.98;;;1.17;;
12286;SDS011;6206;53.100;11.098;2022-09-12T03:49:51;2.42;;;1.02;;
12286;SDS011;6206;53.100;11.098;2022-09-12T03:52:19;1.20;;;1.10;;
12286;SDS011;6206;53.100;11.098;2022-09-12T03:54:46;1.83;;;1.10;;
12286;SDS011;6206;53.100;11.098;2022-09-12T03:57:13;2.88;;;1.35;;
12286;SDS011;6206;53.100;11.098;2022-09-12T03:59:40;2.90;;;1.40;;
12286;SDS011;6206;53.100;11.098;2022-09-12T04:02:06;1.30;;;1.20;;
12286;SDS011;6206;53.100;11.098;2022-09-12T04:04:36;3.20;;;1.30;;
12286;SDS011;6206;53.100;11.098;2022-09-12T04:07:03;1.75;;;1.30;;
12286;SDS011;6206;53.100;11.098;2022-09-12T04:09:31;2.07;;;1.50;;
12286;SDS011;6206;53.100;11.098;2022-09-12T04:11:57;2.40;;;1.30;;
12286;SDS011;6206;53.100;11.098;2022-09-12T04:14:24;1.60;;;1.10;;
12286;SDS011;6206;53.100;11.098;2022-09-12T04:16:51;1.23;;;1.13;;
12286;SDS011;6206;53.100;11.098;2022-09-12T04:19:17;1.42;;;1.33;;
12286;SDS011;6206;53.100;11.098;2022-09-12T04:21:44;2.20;;;1.50;;
12286;SDS011;6206;53.100;11.098;2022-09-12T04:24:11;1.48;;;1.30;;
12286;SDS011;6206;53.100;11.098;2022-09-12T04:26:39;1.40;;;1.30;;
12286;SDS011;6206;53.100;11.098;2022-09-12T04:29:05;3.80;;;1.40;;
12286;SDS011;6206;53.100;11.098;2022-09-12T04:31:32;1.88;;;1.50;;
12286;SDS011;6206;53.100;11.098;2022-09-12T04:33:59;2.17;;;1.83;;
12286;SDS011;6206;53.100;11.098;2022-09-12T04:36:26;3.17;;;1.70;;
12286;SDS011;6206;53.100;11.098;2022-09-12T04:38:55;3.00;;;1.70;;
12286;SDS011;6206;53.100;11.098;2022-09-12T04:41:23;2.15;;;1.85;;
12286;SDS011;6206;53.100;11.098;2022-09-12T04:43:53;3.10;;;2.00;;
12286;SDS011;6206;53.100;11.098;2022-09-12T04:46:22;4.47;;;1.70;;
12286;SDS011;6206;53.100;11.098;2022-09-12T04:48:50;1.98;;;1.77;;
12286;SDS011;6206;53.100;11.098;2022-09-12T04:51:20;4.75;;;1.98;;
12286;SDS011;6206;53.100;11.098;2022-09-12T04:53:50;2.83;;;1.80;;
12286;SDS011;6206;53.100;11.098;2022-09-12T04:56:18;3.03;;;1.60;;
12286;SDS011;6206;53.100;11.098;2022-09-12T04:58:46;1.90;;;1.70;;
12286;SDS011;6206;53.100;11.098;2022-09-12T05:01:15;2.92;;;1.80;;
12286;SDS011;6206;53.100;11.098;2022-09-12T05:03:43;2.70;;;1.80;;
12286;SDS011;6206;53.100;11.098;2022-09-12T05:06:11;2.70;;;1.30;;
12286;SDS011;6206;53.100;11.098;2022-09-12T05:08:39;2.05;;;1.30;;
12286;SDS011;6206;53.100;11.098;2022-09-12T05:11:06;1.58;;;1.00;;
12286;SDS011;6206;53.100;11.098;2022-09-12T05:13:35;2.00;;;0.90;;
12286;SDS011;6206;53.100;11.098;2022-09-12T05:16:03;0.82;;;0.82;;
12286;SDS011;6206;53.100;11.098;2022-09-12T05:18:32;1.20;;;0.80;;
12286;SDS011;6206;53.100;11.098;2022-09-12T05:20:59;2.00;;;1.00;;
12286;SDS011;6206;53.100;11.098;2022-09-12T05:23:28;0.98;;;0.90;;
12286;SDS011;6206;53.100;11.098;2022-09-12T05:25:55;1.60;;;1.00;;
12286;SDS011;6206;53.100;11.098;2022-09-12T05:28:23;3.33;;;2.13;;
12286;SDS011;6206;53.100;11.098;2022-09-12T05:30:58;2.10;;;1.10;;
12286;SDS011;6206;53.100;11.098;2022-09-12T05:33:26;1.00;;;0.90;;
12286;SDS011;6206;53.100;11.098;2022-09-12T05:35:54;0.85;;;0.80;;
12286;SDS011;6206;53.100;11.098;2022-09-12T05:38:21;1.35;;;0.90;;
12286;SDS011;6206;53.100;11.098;2022-09-12T05:40:48;1.25;;;0.88;;
12286;SDS011;6206;53.100;11.098;2022-09-12T05:43:15;2.10;;;1.03;;
12286;SDS011;6206;53.100;11.098;2022-09-12T05:45:44;1.20;;;1.10;;
12286;SDS011;6206;53.100;11.098;2022-09-12T05:48:11;3.10;;;1.10;;
12286;SDS011;6206;53.100;11.098;2022-09-12T05:50:37;1.98;;;1.20;;
12286;SDS011;6206;53.100;11.098;2022-09-12T05:53:07;7.47;;;1.50;;
12286;SDS011;6206;53.100;11.098;2022-09-12T05:55:34;8.57;;;1.77;;
12286;SDS011;6206;53.100;11.098;2022-09-12T05:58:01;8.00;;;2.20;;
12286;SDS011;6206;53.100;11.098;2022-09-12T06:00:28;7.65;;;1.90;;
12286;SDS011;6206;53.100;11.098;2022-09-12T06:02:55;2.90;;;1.90;;
12286;SDS011;6206;53.100;11.098;2022-09-12T06:05:21;4.35;;;2.03;;
12286;SDS011;6206;53.100;11.098;2022-09-12T06:07:48;2.65;;;1.80;;
12286;SDS011;6206;53.100;11.098;2022-09-12T06:10:17;4.47;;;2.00;;
12286;SDS011;6206;53.100;11.098;2022-09-12T06:12:46;3.63;;;2.00;;
12286;SDS011;6206;53.100;11.098;2022-09-12T06:15:12;3.80;;;1.80;;
12286;SDS011;6206;53.100;11.098;2022-09-12T06:17:40;2.63;;;1.80;;
12286;SDS011;6206;53.100;11.098;2022-09-12T06:20:07;3.90;;;2.07;;
12286;SDS011;6206;53.100;11.098;2022-09-12T06:22:34;3.90;;;2.05;;
12286;SDS011;6206;53.100;11.098;2022-09-12T06:25:01;2.25;;;1.70;;
12286;SDS011;6206;53.100;11.098;2022-09-12T06:27:29;3.90;;;2.38;;
12286;SDS011;6206;53.100;11.098;2022-09-12T06:29:55;5.45;;;3.22;;
12286;SDS011;6206;53.100;11.098;2022-09-12T06:32:22;4.00;;;2.97;;
12286;SDS011;6206;53.100;11.098;2022-09-12T06:34:49;4.30;;;2.60;;
12286;SDS011;6206;53.100;11.098;2022-09-12T06:37:15;6.05;;;3.70;;
12286;SDS011;6206;53.100;11.098;2022-09-12T06:39:42;4.78;;;3.30;;
12286;SDS011;6206;53.100;11.098;2022-09-12T06:42:09;4.93;;;3.15;;
12286;SDS011;6206;53.100;11.098;2022-09-12T06:44:38;5.72;;;3.50;;
12286;SDS011;6206;53.100;11.098;2022-09-12T06:47:05;6.13;;;3.40;;
12286;SDS011;6206;53.100;11.098;2022-09-12T06:49:32;5.18;;;3.30;;
12286;SDS011;6206;53.100;11.098;2022-09-12T06:51:59;4.63;;;3.42;;
12286;SDS011;6206;53.100;11.098;2022-09-12T06:54:26;7.18;;;3.70;;
12286;SDS011;6206;53.100;11.098;2022-09-12T06:56:53;5.70;;;3.67;;
12286;SDS011;6206;53.100;11.098;2022-09-12T06:59:19;5.50;;;3.70;;
12286;SDS011;6206;53.100;11.098;2022-09-12T07:01:48;5.68;;;3.60;;
12286;SDS011;6206;53.100;11.098;2022-09-12T07:04:14;5.57;;;3.60;;
12286;SDS011;6206;53.100;11.098;2022-09-12T07:06:41;5.80;;;3.33;;
12286;SDS011;6206;53.100;11.098;2022-09-12T07:09:09;5.40;;;3.30;;
12286;SDS011;6206;53.100;11.098;2022-09-12T07:11:38;5.03;;;3.85;;
12286;SDS011;6206;53.100;11.098;2022-09-12T07:14:06;3.72;;;3.17;;
12286;SDS011;6206;53.100;11.098;2022-09-12T07:16:35;4.88;;;3.83;;
12286;SDS011;6206;53.100;11.098;2022-09-12T07:19:04;26.85;;;4.57;;
12286;SDS011;6206;53.100;11.098;2022-09-12T07:21:32;4.85;;;3.22;;
12286;SDS011;6206;53.100;11.098;2022-09-12T07:24:03;7.55;;;4.93;;
12286;SDS011;6206;53.100;11.098;2022-09-12T07:26:34;5.47;;;3.40;;
12286;SDS011;6206;53.100;11.098;2022-09-12T07:29:01;4.60;;;3.65;;
12286;SDS011;6206;53.100;11.098;2022-09-12T07:31:29;5.22;;;4.43;;
12286;SDS011;6206;53.100;11.098;2022-09-12T07:33:56;4.43;;;3.95;;
12286;SDS011;6206;53.100;11.098;2022-09-12T07:36:24;5.32;;;4.13;;
12286;SDS011;6206;53.100;11.098;2022-09-12T07:38:54;5.50;;;4.53;;
12286;SDS011;6206;53.100;11.098;2022-09-12T07:41:22;7.15;;;4.53;;
12286;SDS011;6206;53.100;11.098;2022-09-12T07:43:50;7.18;;;4.72;;
12286;SDS011;6206;53.100;11.098;2022-09-12T07:46:18;6.05;;;4.85;;
12286;SDS011;6206;53.100;11.098;2022-09-12T07:48:47;5.00;;;4.25;;
12286;SDS011;6206;53.100;11.098;2022-09-12T07:51:15;5.05;;;4.45;;
12286;SDS011;6206;53.100;11.098;2022-09-12T07:53:44;6.53;;;4.80;;
12286;SDS011;6206;53.100;11.098;2022-09-12T07:56:11;5.88;;;4.70;;
12286;SDS011;6206;53.100;11.098;2022-09-12T07:58:39;5.93;;;4.70;;
12286;SDS011;6206;53.100;11.098;2022-09-12T08:01:07;6.63;;;5.93;;
12286;SDS011;6206;53.100;11.098;2022-09-12T08:03:36;6.53;;;5.80;;
12286;SDS011;6206;53.100;11.098;2022-09-12T08:06:04;7.10;;;6.05;;
12286;SDS011;6206;53.100;11.098;2022-09-12T08:08:32;7.72;;;6.32;;
12286;SDS011;6206;53.100;11.098;2022-09-12T08:11:00;7.90;;;6.30;;
12286;SDS011;6206;53.100;11.098;2022-09-12T08:13:30;9.27;;;7.25;;
12286;SDS011;6206;53.100;11.098;2022-09-12T08:15:57;10.05;;;7.50;;
12286;SDS011;6206;53.100;11.098;2022-09-12T08:18:25;9.55;;;7.68;;
12286;SDS011;6206;53.100;11.098;2022-09-12T08:20:55;9.95;;;7.90;;
12286;SDS011;6206;53.100;11.098;2022-09-12T08:23:23;10.10;;;7.63;;
12286;SDS011;6206;53.100;11.098;2022-09-12T08:25:50;10.18;;;7.15;;
12286;SDS011;6206;53.100;11.098;2022-09-12T08:28:18;7.93;;;6.18;;
12286;SDS011;6206;53.100;11.098;2022-09-12T08:30:44;8.35;;;6.70;;
12286;SDS011;6206;53.100;11.098;2022-09-12T08:33:11;7.95;;;6.60;;
12286;SDS011;6206;53.100;11.098;2022-09-12T08:35:39;7.60;;;6.10;;
12286;SDS011;6206;53.100;11.098;2022-09-12T08:38:06;7.65;;;5.60;;
12286;SDS011;6206;53.100;11.098;2022-09-12T08:40:32;6.20;;;5.60;;
12286;SDS011;6206;53.100;11.098;2022-09-12T08:43:09;6.50;;;5.80;;
12286;SDS011;6206;53.100;11.098;2022-09-12T08:45:56;7.47;;;5.00;;
12286;SDS011;6206;53.100;11.098;2022-09-12T08:48:27;7.50;;;5.35;;
12286;SDS011;6206;53.100;11.098;2022-09-12T08:50:55;7.30;;;4.85;;
12286;SDS011;6206;53.100;11.098;2022-09-12T08:53:22;6.00;;;3.95;;
12286;SDS011;6206;53.100;11.098;2022-09-12T08:55:52;6.15;;;4.57;;
12286;SDS011;6206;53.100;11.098;2022-09-12T08:58:25;6.57;;;4.40;;
12286;SDS011;6206;53.100;11.098;2022-09-12T09:00:55;6.30;;;4.85;;
12286;SDS011;6206;53.100;11.098;2022-09-12T09:03:38;4.15;;;3.75;;
12286;SDS011;6206;53.100;11.098;2022-09-12T09:06:30;9.25;;;4.75;;
12286;SDS011;6206;53.100;11.098;2022-09-12T09:09:09;4.65;;;3.88;;
12286;SDS011;6206;53.100;11.098;2022-09-12T09:11:43;5.13;;;3.80;;
12286;SDS011;6206;53.100;11.098;2022-09-12T09:14:27;5.07;;;3.90;;
12286;SDS011;6206;53.100;11.098;2022-09-12T09:17:14;5.60;;;3.80;;
12286;SDS011;6206;53.100;11.098;2022-09-12T09:19:46;5.63;;;4.10;;
12286;SDS011;6206;53.100;11.098;2022-09-12T09:22:17;4.60;;;3.58;;
12286;SDS011;6206;53.100;11.098;2022-09-12T09:24:57;4.53;;;3.22;;
12286;SDS011;6206;53.100;11.098;2022-09-12T09:27:28;4.50;;;3.55;;
12286;SDS011;6206;53.100;11.098;2022-09-12T09:30:00;4.93;;;3.80;;
12286;SDS011;6206;53.100;11.098;2022-09-12T09:32:29;4.95;;;3.60;;
12286;SDS011;6206;53.100;11.098;2022-09-12T09:34:59;3.70;;;2.87;;
12286;SDS011;6206;53.100;11.098;2022-09-12T09:37:28;4.15;;;3.47;;
12286;SDS011;6206;53.100;11.098;2022-09-12T09:40:05;4.00;;;3.38;;
12286;SDS011;6206;53.100;11.098;2022-09-12T09:42:44;4.10;;;3.47;;
12286;SDS011;6206;53.100;11.098;2022-09-12T09:45:21;4.20;;;3.30;;
12286;SDS011;6206;53.100;11.098;2022-09-12T09:47:50;4.47;;;2.65;;
12286;SDS011;6206;53.100;11.098;2022-09-12T09:50:19;3.60;;;3.13;;
12286;SDS011;6206;53.100;11.098;2022-09-12T09:52:46;3.70;;;3.05;;
12286;SDS011;6206;53.100;11.098;2022-09-12T09:55:16;2.80;;;2.50;;
12286;SDS011;6206;53.100;11.098;2022-09-12T10:10:20;3.75;;;1.90;;
12286;SDS011;6206;53.100;11.098;2022-09-12T10:12:47;3.13;;;2.33;;
12286;SDS011;6206;53.100;11.098;2022-09-12T10:15:18;2.38;;;2.17;;
12286;SDS011;6206;53.100;11.098;2022-09-12T10:17:48;3.65;;;2.25;;
12286;SDS011;6206;53.100;11.098;2022-09-12T10:20:28;3.93;;;3.20;;
12286;SDS011;6206;53.100;11.098;2022-09-12T10:22:57;3.63;;;2.70;;
12286;SDS011;6206;53.100;11.098;2022-09-12T10:25:25;5.57;;;2.80;;
12286;SDS011;6206;53.100;11.098;2022-09-12T10:27:53;4.30;;;2.73;;
12286;SDS011;6206;53.100;11.098;2022-09-12T10:30:22;3.38;;;2.58;;
12286;SDS011;6206;53.100;11.098;2022-09-12T10:32:55;3.17;;;2.67;;
12286;SDS011;6206;53.100;11.098;2022-09-12T10:35:27;5.30;;;2.72;;
12286;SDS011;6206;53.100;11.098;2022-09-12T10:37:55;4.50;;;2.77;;
12286;SDS011;6206;53.100;11.098;2022-09-12T10:40:25;4.20;;;2.63;;
12286;SDS011;6206;53.100;11.098;2022-09-12T10:42:53;2.92;;;2.42;;
12286;SDS011;6206;53.100;11.098;2022-09-12T10:45:25;5.13;;;3.00;;
12286;SDS011;6206;53.100;11.098;2022-09-12T10:47:55;4.03;;;3.42;;
12286;SDS011;6206;53.100;11.098;2022-09-12T10:50:25;4.28;;;3.13;;
12286;SDS011;6206;53.100;11.098;2022-09-12T10:52:54;5.85;;;3.60;;
12286;SDS011;6206;53.100;11.098;2022-09-12T10:55:37;4.05;;;3.65;;
12286;SDS011;6206;53.100;11.098;2022-09-12T10:58:11;4.78;;;4.10;;
12286;SDS011;6206;53.100;11.098;2022-09-12T11:00:51;4.97;;;4.00;;
12286;SDS011;6206;53.100;11.098;2022-09-12T11:03:29;4.25;;;3.22;;
12286;SDS011;6206;53.100;11.098;2022-09-12T11:06:07;4.60;;;3.55;;
12286;SDS011;6206;53.100;11.098;2022-09-12T11:08:43;5.55;;;3.60;;
12286;SDS011;6206;53.100;11.098;2022-09-12T11:11:26;4.30;;;3.40;;
12286;SDS011;6206;53.100;11.098;2022-09-12T11:14:07;3.60;;;3.15;;
12286;SDS011;6206;53.100;11.098;2022-09-12T11:16:44;4.63;;;3.33;;
12286;SDS011;6206;53.100;11.098;2022-09-12T11:19:26;4.63;;;3.47;;
12286;SDS011;6206;53.100;11.098;2022-09-12T11:22:08;7.35;;;2.88;;
12286;SDS011;6206;53.100;11.098;2022-09-12T11:25:03;3.53;;;3.20;;
12286;SDS011;6206;53.100;11.098;2022-09-12T11:27:51;3.27;;;2.60;;
12286;SDS011;6206;53.100;11.098;2022-09-12T11:30:46;3.08;;;2.50;;
12286;SDS011;6206;53.100;11.098;2022-09-12T11:33:37;4.13;;;2.97;;
12286;SDS011;6206;53.100;11.098;2022-09-12T11:36:11;2.67;;;2.47;;
12286;SDS011;6206;53.100;11.098;2022-09-12T11:38:50;3.97;;;2.40;;
12286;SDS011;6206;53.100;11.098;2022-09-12T11:41:25;2.67;;;2.13;;
12286;SDS011;6206;53.100;11.098;2022-09-12T11:43:56;2.55;;;2.35;;
12286;SDS011;6206;53.100;11.098;2022-09-12T11:46:29;3.00;;;2.67;;
12286;SDS011;6206;53.100;11.098;2022-09-12T11:49:01;2.25;;;2.00;;
12286;SDS011;6206;53.100;11.098;2022-09-12T11:51:39;2.90;;;2.50;;
12286;SDS011;6206;53.100;11.098;2022-09-12T11:54:13;3.95;;;2.28;;
12286;SDS011;6206;53.100;11.098;2022-09-12T11:56:46;3.00;;;2.20;;
12286;SDS011;6206;53.100;11.098;2022-09-12T11:59:23;2.30;;;2.03;;
12286;SDS011;6206;53.100;11.098;2022-09-12T12:01:57;2.03;;;1.83;;
12286;SDS011;6206;53.100;11.098;2022-09-12T12:04:27;2.60;;;1.80;;
12286;SDS011;6206;53.100;11.098;2022-09-12T12:07:02;3.60;;;1.92;;
12286;SDS011;6206;53.100;11.098;2022-09-12T12:09:31;3.67;;;1.98;;
12286;SDS011;6206;53.100;11.098;2022-09-12T12:11:59;2.70;;;2.30;;
12286;SDS011;6206;53.100;11.098;2022-09-12T12:14:31;2.75;;;2.00;;
12286;SDS011;6206;53.100;11.098;2022-09-12T12:17:03;3.25;;;2.35;;
12286;SDS011;6206;53.100;11.098;2022-09-12T12:19:37;2.97;;;2.25;;
12286;SDS011;6206;53.100;11.098;2022-09-12T12:22:06;5.97;;;2.50;;
12286;SDS011;6206;53.100;11.098;2022-09-12T12:24:52;2.78;;;2.10;;
12286;SDS011;6206;53.100;11.098;2022-09-12T12:27:24;2.78;;;2.10;;
12286;SDS011;6206;53.100;11.098;2022-09-12T12:36:29;2.35;;;1.98;;
12286;SDS011;6206;53.100;11.098;2022-09-12T12:39:00;2.17;;;1.92;;
12286;SDS011;6206;53.100;11.098;2022-09-12T12:48:29;2.40;;;2.20;;
12286;SDS011;6206;53.100;11.098;2022-09-12T12:51:25;2.60;;;2.40;;
12286;SDS011;6206;53.100;11.098;2022-09-12T12:53:55;2.20;;;2.00;;
12286;SDS011;6206;53.100;11.098;2022-09-12T12:56:26;2.85;;;2.10;;
12286;SDS011;6206;53.100;11.098;2022-09-12T12:58:58;3.00;;;2.20;;
12286;SDS011;6206;53.100;11.098;2022-09-12T13:01:26;2.60;;;2.30;;
12286;SDS011;6206;53.100;11.098;2022-09-12T13:03:58;3.47;;;2.20;;
12286;SDS011;6206;53.100;11.098;2022-09-12T13:06:28;3.97;;;2.27;;
12286;SDS011;6206;53.100;11.098;2022-09-12T13:08:59;3.28;;;2.10;;
12286;SDS011;6206;53.100;11.098;2022-09-12T13:11:30;2.40;;;2.20;;
12286;SDS011;6206;53.100;11.098;2022-09-12T13:14:00;2.53;;;2.15;;
12286;SDS011;6206;53.100;11.098;2022-09-12T13:16:30;3.08;;;2.13;;
12286;SDS011;6206;53.100;11.098;2022-09-12T13:19:02;2.83;;;2.10;;
12286;SDS011;6206;53.100;11.098;2022-09-12T13:21:31;4.00;;;2.47;;
12286;SDS011;6206;53.100;11.098;2022-09-12T13:23:59;2.92;;;2.30;;
12286;SDS011;6206;53.100;11.098;2022-09-12T13:26:31;2.60;;;2.00;;
12286;SDS011;6206;53.100;11.098;2022-09-12T13:29:09;4.47;;;2.22;;
12286;SDS011;6206;53.100;11.098;2022-09-12T13:31:37;2.80;;;2.28;;
12286;SDS011;6206;53.100;11.098;2022-09-12T13:34:05;3.13;;;2.15;;
12286;SDS011;6206;53.100;11.098;2022-09-12T13:39:23;5.78;;;2.70;;
12286;SDS011;6206;53.100;11.098;2022-09-12T13:45:03;2.20;;;2.00;;
12286;SDS011;6206;53.100;11.098;2022-09-12T13:47:35;4.13;;;2.10;;
12286;SDS011;6206;53.100;11.098;2022-09-12T13:50:07;2.72;;;2.00;;
12286;SDS011;6206;53.100;11.098;2022-09-12T13:52:41;3.20;;;2.00;;
12286;SDS011;6206;53.100;11.098;2022-09-12T13:55:17;3.23;;;1.90;;
12286;SDS011;6206;53.100;11.098;2022-09-12T13:57:54;2.23;;;2.00;;
12286;SDS011;6206;53.100;11.098;2022-09-12T14:00:23;2.67;;;1.90;;
12286;SDS011;6206;53.100;11.098;2022-09-12T14:02:52;2.20;;;2.00;;
12286;SDS011;6206;53.100;11.098;2022-09-12T14:05:40;7.55;;;4.80;;
12286;SDS011;6206;53.100;11.098;2022-09-12T14:08:09;2.92;;;2.03;;
12286;SDS011;6206;53.100;11.098;2022-09-12T14:10:39;3.20;;;1.90;;
12286;SDS011;6206;53.100;11.098;2022-09-12T14:13:09;2.30;;;2.00;;
12286;SDS011;6206;53.100;11.098;2022-09-12T14:15:37;2.60;;;1.90;;
12286;SDS011;6206;53.100;11.098;2022-09-12T14:18:19;3.38;;;2.00;;
12286;SDS011;6206;53.100;11.098;2022-09-12T14:20:50;2.20;;;1.98;;
12286;SDS011;6206;53.100;11.098;2022-09-12T14:23:23;4.05;;;3.13;;
12286;SDS011;6206;53.100;11.098;2022-09-12T14:25:52;3.50;;;2.50;;
12286;SDS011;6206;53.100;11.098;2022-09-12T14:28:20;5.38;;;2.17;;
12286;SDS011;6206;53.100;11.098;2022-09-12T14:31:01;3.23;;;2.10;;
12286;SDS011;6206;53.100;11.098;2022-09-12T14:33:31;3.42;;;2.08;;
12286;SDS011;6206;53.100;11.098;2022-09-12T14:36:10;3.33;;;1.80;;
12286;SDS011;6206;53.100;11.098;2022-09-12T14:38:45;2.05;;;1.65;;
12286;SDS011;6206;53.100;11.098;2022-09-12T14:41:19;2.88;;;1.70;;
12286;SDS011;6206;53.100;11.098;2022-09-12T14:43:50;2.08;;;1.80;;
12286;SDS011;6206;53.100;11.098;2022-09-12T14:46:21;1.70;;;1.40;;
12286;SDS011;6206;53.100;11.098;2022-09-12T14:48:52;2.53;;;1.60;;
12286;SDS011;6206;53.100;11.098;2022-09-12T14:51:24;2.47;;;1.80;;
12286;SDS011;6206;53.100;11.098;2022-09-12T14:53:53;3.20;;;1.70;;
12286;SDS011;6206;53.100;11.098;2022-09-12T14:56:20;2.53;;;2.07;;
12286;SDS011;6206;53.100;11.098;2022-09-12T14:58:47;2.70;;;1.55;;
12286;SDS011;6206;53.100;11.098;2022-09-12T15:01:21;1.73;;;1.42;;
12286;SDS011;6206;53.100;11.098;2022-09-12T15:03:52;3.67;;;1.45;;
12286;SDS011;6206;53.100;11.098;2022-09-12T15:06:21;3.38;;;1.55;;
12286;SDS011;6206;53.100;11.098;2022-09-12T15:08:53;3.17;;;1.60;;
12286;SDS011;6206;53.100;11.098;2022-09-12T15:13:47;1.80;;;1.30;;
12286;SDS011;6206;53.100;11.098;2022-09-12T15:26:08;2.03;;;1.60;;
12286;SDS011;6206;53.100;11.098;2022-09-12T15:58:05;5.45;;;4.43;;
12286;SDS011;6206;53.100;11.098;2022-09-12T16:00:33;3.50;;;2.17;;
12286;SDS011;6206;53.100;11.098;2022-09-12T16:03:00;2.65;;;1.90;;
12286;SDS011;6206;53.100;11.098;2022-09-12T16:20:11;2.13;;;1.90;;
12286;SDS011;6206;53.100;11.098;2022-09-12T16:22:38;4.90;;;1.73;;
12286;SDS011;6206;53.100;11.098;2022-09-12T16:25:05;3.85;;;2.08;;
12286;SDS011;6206;53.100;11.098;2022-09-12T16:27:33;2.20;;;1.90;;
12286;SDS011;6206;53.100;11.098;2022-09-12T16:30:00;4.90;;;4.05;;
12286;SDS011;6206;53.100;11.098;2022-09-12T16:32:28;3.60;;;1.93;;
12286;SDS011;6206;53.100;11.098;2022-09-12T16:34:55;2.38;;;1.60;;
12286;SDS011;6206;53.100;11.098;2022-09-12T16:37:22;2.73;;;2.07;;
12286;SDS011;6206;53.100;11.098;2022-09-12T16:39:48;2.25;;;1.75;;
12286;SDS011;6206;53.100;11.098;2022-09-12T16:42:16;4.55;;;3.72;;